Time;durP1;ratioP1;P1;durP2;ratioP2;P2;SDS_P1;SDS_P2;PMS_P1;PMS_P2;Temp;Humidity;BMP_temperature;BMP_pressure;BME280_temperature;BME280_humidity;BME280_pressure;Samples;Min_cycle;Max_cycle;Signal;HPM_P1;HPM_P2
2023/03/08 00:00:15;;;;;;;75.60;53.15;;;15.20;57.70;;;;;;5001701;27;86093;-52
2023/03/08 00:02:41;;;;;;;76.28;53.97;;;15.10;57.70;;;;;;5005665;27;85873;-55
2023/03/08 00:05:07;;;;;;;75.63;53.38;;;15.20;57.50;;;;;;5002433;27;85922;-58
2023/03/08 00:07:33;;;;;;;76.95;54.20;;;15.20;57.40;;;;;;4999386;27;86783;-59
2023/03/08 00:09:58;;;;;;;74.10;52.72;;;15.20;57.30;;;;;;4995186;27;88370;-57
2023/03/08 00:12:24;;;;;;;75.55;53.50;;;15.10;57.30;;;;;;5002210;27;85268;-58
2023/03/08 00:14:50;;;;;;;75.35;53.85;;;15.20;57.20;;;;;;5010707;27;86654;-58
2023/03/08 00:17:17;;;;;;;73.82;52.88;;;15.20;57.80;;;;;;4998948;27;86202;-58
2023/03/08 00:19:43;;;;;;;74.30;53.25;;;15.20;57.00;;;;;;5005155;27;86646;-57
2023/03/08 00:22:09;;;;;;;74.63;53.33;;;15.20;56.70;;;;;;5001395;27;87896;-55
2023/03/08 00:24:36;;;;;;;74.47;53.28;;;15.30;56.70;;;;;;5016224;28;85110;-57
2023/03/08 00:27:01;;;;;;;73.53;53.22;;;15.20;56.70;;;;;;4998965;27;86504;-57
2023/03/08 00:29:27;;;;;;;73.38;52.65;;;15.10;56.70;;;;;;5005799;27;89411;-58
2023/03/08 00:31:53;;;;;;;72.20;52.20;;;15.10;56.70;;;;;;5015272;27;85566;-58
2023/03/08 00:34:18;;;;;;;73.03;52.90;;;15.10;56.80;;;;;;5004605;27;87209;-58
2023/03/08 00:36:44;;;;;;;73.57;52.35;;;15.10;56.60;;;;;;5010728;27;87994;-54
2023/03/08 00:39:10;;;;;;;73.68;52.17;;;15.10;56.70;;;;;;4997970;27;90648;-57
2023/03/08 00:41:36;;;;;;;73.60;52.38;;;15.00;56.80;;;;;;5003619;27;87317;-58
2023/03/08 00:44:03;;;;;;;71.90;52.25;;;15.00;56.60;;;;;;5001863;27;85586;-58
2023/03/08 00:46:28;;;;;;;71.75;52.13;;;15.00;56.60;;;;;;5001019;27;87541;-59
2023/03/08 00:48:54;;;;;;;71.43;52.17;;;15.00;56.60;;;;;;4995176;27;87612;-57
2023/03/08 00:51:21;;;;;;;72.93;52.63;;;15.10;56.40;;;;;;5002897;27;86125;-58
2023/03/08 00:53:46;;;;;;;71.47;51.72;;;15.10;56.40;;;;;;4995039;27;85928;-58
2023/03/08 00:56:12;;;;;;;71.75;51.75;;;15.10;56.30;;;;;;4988646;27;86814;-56
2023/03/08 00:58:39;;;;;;;71.95;51.90;;;15.10;56.30;;;;;;5004906;27;86714;-57
2023/03/08 01:01:07;;;;;;;71.88;52.47;;;15.00;56.30;;;;;;4999960;27;86261;-57
2023/03/08 01:03:33;;;;;;;72.63;51.97;;;15.00;56.20;;;;;;5007470;27;87451;-58
2023/03/08 01:06:03;;;;;;;72.28;52.28;;;15.10;56.30;;;;;;5004703;27;87386;-57
2023/03/08 01:08:29;;;;;;;71.27;52.00;;;15.00;56.20;;;;;;5002075;27;91175;-58
2023/03/08 01:10:59;;;;;;;71.05;51.75;;;15.10;56.00;;;;;;4992421;27;85517;-58
2023/03/08 01:13:31;;;;;;;71.45;52.03;;;15.00;56.00;;;;;;4999174;27;85278;-58
2023/03/08 01:15:57;;;;;;;71.53;51.83;;;15.00;55.90;;;;;;4996889;27;88751;-57
2023/03/08 01:18:23;;;;;;;70.85;51.60;;;15.00;56.00;;;;;;5008707;27;85637;-59
2023/03/08 01:21:01;;;;;;;72.05;51.70;;;15.00;55.90;;;;;;5002189;27;88377;-59
2023/03/08 01:23:27;;;;;;;71.18;51.70;;;15.00;55.80;;;;;;5000157;27;85283;-58
2023/03/08 01:26:00;;;;;;;70.72;51.42;;;15.00;55.70;;;;;;4996789;27;86000;-58
2023/03/08 01:28:26;;;;;;;71.93;52.13;;;15.00;55.70;;;;;;5015669;27;86853;-57
2023/03/08 01:30:51;;;;;;;71.03;51.78;;;15.10;55.60;;;;;;5010050;27;88390;-56
2023/03/08 01:33:17;;;;;;;72.38;52.08;;;15.00;55.50;;;;;;5002856;27;85979;-56
2023/03/08 01:35:43;;;;;;;70.65;51.33;;;15.00;55.60;;;;;;5005400;28;86424;-56
2023/03/08 01:38:08;;;;;;;70.78;51.78;;;15.00;55.40;;;;;;5004329;27;86759;-58
2023/03/08 01:40:34;;;;;;;72.50;51.88;;;15.00;55.60;;;;;;4999332;27;85724;-52
2023/03/08 01:43:25;;;;;;;71.93;51.97;;;15.00;55.50;;;;;;5000977;27;85069;-56
2023/03/08 01:46:03;;;;;;;71.90;52.20;;;15.00;55.40;;;;;;5013711;28;87697;-58
2023/03/08 01:48:58;;;;;;;72.85;52.75;;;15.00;55.40;;;;;;4997756;27;87175;-58
2023/03/08 01:51:34;;;;;;;70.68;52.10;;;15.00;55.50;;;;;;5009529;27;87198;-58
2023/03/08 01:54:03;;;;;;;71.65;51.92;;;15.00;55.50;;;;;;5003855;27;91655;-58
2023/03/08 01:56:29;;;;;;;71.05;52.25;;;15.00;55.30;;;;;;5014993;27;88171;-58
2023/03/08 01:58:56;;;;;;;72.00;52.65;;;15.00;55.20;;;;;;4996656;27;86965;-57
2023/03/08 02:01:21;;;;;;;72.15;52.42;;;15.00;55.20;;;;;;5003735;27;89080;-56
2023/03/08 02:03:47;;;;;;;72.75;52.45;;;15.00;55.20;;;;;;5010281;28;85645;-54
2023/03/08 02:06:15;;;;;;;72.97;52.00;;;15.00;55.10;;;;;;5006663;27;88439;-56
2023/03/08 02:08:41;;;;;;;73.38;53.33;;;15.00;55.20;;;;;;5005133;27;87058;-54
2023/03/08 02:11:07;;;;;;;73.95;53.15;;;15.00;55.00;;;;;;5001690;27;88108;-57
2023/03/08 02:13:33;;;;;;;73.28;52.38;;;15.00;55.00;;;;;;5009862;27;87750;-58
2023/03/08 02:16:01;;;;;;;71.40;52.33;;;15.00;54.90;;;;;;5018850;27;86191;-57
2023/03/08 02:18:27;;;;;;;72.03;52.10;;;15.00;54.80;;;;;;5000303;27;85507;-57
2023/03/08 02:20:53;;;;;;;71.68;51.95;;;15.00;54.80;;;;;;5000686;27;85704;-56
2023/03/08 02:23:24;;;;;;;71.35;52.17;;;15.00;54.80;;;;;;5007308;27;87979;-57
2023/03/08 02:25:53;;;;;;;70.47;51.28;;;15.00;54.70;;;;;;5010544;27;86368;-56
2023/03/08 02:28:20;;;;;;;71.00;51.33;;;15.00;54.70;;;;;;5000162;27;85844;-57
2023/03/08 02:30:46;;;;;;;70.60;51.65;;;14.90;54.80;;;;;;5000390;27;85795;-56
2023/03/08 02:33:12;;;;;;;70.78;51.53;;;15.00;54.80;;;;;;5004930;27;86772;-58
2023/03/08 02:35:41;;;;;;;71.40;51.75;;;14.90;54.80;;;;;;5006208;27;88107;-58
2023/03/08 02:38:08;;;;;;;71.15;52.15;;;15.00;54.80;;;;;;4999583;27;86710;-55
2023/03/08 02:40:35;;;;;;;70.00;51.60;;;14.90;54.90;;;;;;5001001;27;86257;-57
2023/03/08 02:43:00;;;;;;;71.53;51.67;;;14.90;54.80;;;;;;5004383;27;88211;-57
2023/03/08 02:45:26;;;;;;;70.80;51.50;;;14.90;54.70;;;;;;5011192;27;88699;-57
2023/03/08 02:47:52;;;;;;;71.40;51.67;;;14.90;54.60;;;;;;5004812;27;88690;-57
2023/03/08 02:50:18;;;;;;;70.03;51.58;;;14.90;54.70;;;;;;5009942;27;87457;-58
2023/03/08 02:52:43;;;;;;;69.90;51.50;;;14.90;54.80;;;;;;5016723;27;85980;-58
2023/03/08 02:55:09;;;;;;;69.32;51.35;;;14.90;54.70;;;;;;4995156;27;86660;-56
2023/03/08 02:57:35;;;;;;;68.72;50.83;;;14.90;54.50;;;;;;4999258;27;87178;-57
2023/03/08 03:00:01;;;;;;;70.00;51.42;;;15.00;54.40;;;;;;5002784;27;85920;-56
2023/03/08 03:02:26;;;;;;;69.15;51.08;;;14.90;54.30;;;;;;5005052;27;85658;-57
2023/03/08 03:04:52;;;;;;;69.13;50.85;;;14.90;55.00;;;;;;5009302;27;86609;-58
2023/03/08 03:07:18;;;;;;;69.85;51.13;;;14.90;54.40;;;;;;5001050;27;86869;-57
2023/03/08 03:09:43;;;;;;;69.38;50.85;;;15.00;54.40;;;;;;5010186;27;87526;-57
2023/03/08 03:12:09;;;;;;;68.50;50.58;;;14.90;54.30;;;;;;5002678;27;86799;-56
2023/03/08 03:14:35;;;;;;;69.38;50.42;;;14.90;54.30;;;;;;5002636;27;87428;-56
2023/03/08 03:17:00;;;;;;;69.00;50.88;;;14.90;54.30;;;;;;5009239;27;85942;-57
2023/03/08 03:19:26;;;;;;;68.63;50.67;;;14.80;54.30;;;;;;5005749;27;86394;-57
2023/03/08 03:21:52;;;;;;;68.35;50.40;;;14.90;54.30;;;;;;5013202;27;87937;-57
2023/03/08 03:24:17;;;;;;;69.65;50.50;;;14.80;54.40;;;;;;5012788;27;85467;-57
2023/03/08 03:26:43;;;;;;;67.90;49.80;;;14.80;54.50;;;;;;4999765;27;86620;-57
2023/03/08 03:29:09;;;;;;;67.30;50.05;;;14.80;54.50;;;;;;4994042;27;85545;-58
2023/03/08 03:31:34;;;;;;;67.82;50.15;;;14.80;54.50;;;;;;4997229;27;95094;-54
2023/03/08 03:34:00;;;;;;;67.40;49.90;;;14.70;54.50;;;;;;5014440;27;85918;-56
2023/03/08 03:36:26;;;;;;;69.57;50.33;;;14.70;54.50;;;;;;5004351;27;87854;-58
2023/03/08 03:38:51;;;;;;;67.80;49.92;;;14.70;54.30;;;;;;5007325;27;85457;-57
2023/03/08 03:41:19;;;;;;;68.13;50.25;;;14.70;54.60;;;;;;5012909;27;91156;-53
2023/03/08 03:43:46;;;;;;;68.38;50.35;;;14.80;54.40;;;;;;5009888;27;88262;-57
2023/03/08 03:46:15;;;;;;;66.95;49.78;;;14.70;54.50;;;;;;5005508;27;86022;-58
2023/03/08 03:48:41;;;;;;;67.68;50.53;;;14.70;54.50;;;;;;5013277;27;86413;-58
2023/03/08 03:51:10;;;;;;;68.28;50.30;;;14.70;54.50;;;;;;5007741;27;86225;-57
2023/03/08 03:53:36;;;;;;;67.38;49.72;;;14.80;54.40;;;;;;4999244;27;86666;-58
2023/03/08 03:56:17;;;;;;;66.90;49.78;;;14.70;54.30;;;;;;4998468;27;88163;-56
2023/03/08 03:58:44;;;;;;;67.63;50.13;;;14.60;54.40;;;;;;5001360;28;87701;-57
2023/03/08 04:01:34;;;;;;;68.05;49.75;;;14.70;54.60;;;;;;5001371;27;85787;-53
2023/03/08 04:04:00;;;;;;;66.97;49.60;;;14.70;54.50;;;;;;5017750;27;87958;-55
2023/03/08 04:06:31;;;;;;;66.97;49.60;;;14.70;54.40;;;;;;5002905;27;86743;-57
2023/03/08 04:09:11;;;;;;;67.50;49.50;;;14.70;54.30;;;;;;5006193;27;85828;-56
2023/03/08 04:11:39;;;;;;;67.28;49.95;;;14.70;54.80;;;;;;4996478;27;88138;-57
2023/03/08 04:14:05;;;;;;;67.40;49.95;;;14.70;54.30;;;;;;4995750;27;85760;-56
2023/03/08 04:16:36;;;;;;;66.55;49.67;;;14.70;54.80;;;;;;5020125;27;86234;-57
2023/03/08 04:19:05;;;;;;;67.17;50.00;;;14.70;54.20;;;;;;5007949;27;86385;-53
2023/03/08 04:21:31;;;;;;;66.55;49.20;;;14.60;54.40;;;;;;5023763;27;85837;-57
2023/03/08 04:23:57;;;;;;;67.15;49.63;;;14.60;54.30;;;;;;5003308;27;87109;-55
2023/03/08 04:26:23;;;;;;;66.30;49.38;;;14.60;54.20;;;;;;4998686;27;87066;-57
2023/03/08 04:28:49;;;;;;;67.45;49.80;;;14.60;54.20;;;;;;5001455;27;87581;-57
2023/03/08 04:31:27;;;;;;;67.60;49.72;;;14.60;54.30;;;;;;5002207;28;91351;-56
2023/03/08 04:33:53;;;;;;;66.55;49.08;;;14.70;54.40;;;;;;4999746;27;87699;-56
2023/03/08 04:36:19;;;;;;;67.22;49.45;;;14.60;54.10;;;;;;5001010;27;85734;-56
2023/03/08 04:38:46;;;;;;;66.85;49.30;;;14.60;54.20;;;;;;5004855;27;85929;-56
2023/03/08 04:41:12;;;;;;;66.65;49.65;;;14.60;54.30;;;;;;5003095;27;85539;-57
2023/03/08 04:43:38;;;;;;;67.82;49.75;;;14.50;54.40;;;;;;5006914;27;87649;-55
2023/03/08 04:46:05;;;;;;;66.63;49.03;;;14.50;54.30;;;;;;5013455;27;85555;-57
2023/03/08 04:48:31;;;;;;;66.38;49.22;;;14.50;54.40;;;;;;4999207;27;90230;-57
2023/03/08 04:50:59;;;;;;;66.63;49.45;;;14.60;54.20;;;;;;5006217;27;86466;-57
2023/03/08 04:53:26;;;;;;;66.40;49.22;;;14.60;54.00;;;;;;5005472;27;87212;-56
2023/03/08 04:55:53;;;;;;;66.25;49.35;;;14.50;54.20;;;;;;4994094;27;87004;-57
2023/03/08 04:58:19;;;;;;;65.88;48.97;;;14.50;54.10;;;;;;4998478;27;88777;-57
2023/03/08 05:00:45;;;;;;;65.88;48.90;;;14.50;54.30;;;;;;4994984;27;87622;-57
2023/03/08 05:03:12;;;;;;;65.78;49.05;;;14.60;54.10;;;;;;5012745;27;91490;-57
2023/03/08 05:05:51;;;;;;;65.70;49.00;;;14.50;54.00;;;;;;4995566;27;88320;-57
2023/03/08 05:08:18;;;;;;;66.53;48.83;;;14.50;54.00;;;;;;4997012;27;88933;-57
2023/03/08 05:10:56;;;;;;;66.40;49.45;;;14.60;53.70;;;;;;5003764;27;85659;-56
2023/03/08 05:13:22;;;;;;;65.70;48.75;;;14.50;54.10;;;;;;5016681;27;86835;-55
2023/03/08 05:15:48;;;;;;;66.28;49.17;;;14.50;54.10;;;;;;5008780;27;89350;-57
2023/03/08 05:18:14;;;;;;;66.00;49.22;;;14.50;54.10;;;;;;5013293;27;86647;-57
2023/03/08 05:20:39;;;;;;;66.55;49.13;;;14.40;54.10;;;;;;5008770;27;87057;-56
2023/03/08 05:23:05;;;;;;;66.80;49.50;;;14.40;54.30;;;;;;5003323;27;85803;-57
2023/03/08 05:25:32;;;;;;;66.30;48.75;;;14.30;54.40;;;;;;4995321;27;87377;-56
2023/03/08 05:27:58;;;;;;;67.95;49.25;;;14.40;54.40;;;;;;4997955;27;85526;-56
2023/03/08 05:30:24;;;;;;;66.18;48.90;;;14.30;54.40;;;;;;5004638;27;90938;-57
2023/03/08 05:32:50;;;;;;;66.80;49.22;;;14.30;54.30;;;;;;5026185;27;88548;-55
2023/03/08 05:35:15;;;;;;;66.90;49.45;;;14.40;54.40;;;;;;5007149;27;88536;-57
2023/03/08 05:37:41;;;;;;;66.05;49.47;;;14.30;54.30;;;;;;5007804;27;86365;-57
2023/03/08 05:40:07;;;;;;;66.78;49.25;;;14.30;54.30;;;;;;5011410;27;86507;-58
2023/03/08 05:42:33;;;;;;;66.40;49.38;;;14.30;54.40;;;;;;4997737;27;88978;-57
2023/03/08 05:44:59;;;;;;;67.93;49.55;;;14.10;54.60;;;;;;5010657;27;86802;-56
2023/03/08 05:47:24;;;;;;;66.30;49.03;;;14.00;55.00;;;;;;5000573;27;90860;-58
2023/03/08 05:49:50;;;;;;;66.47;49.20;;;13.90;55.80;;;;;;5013487;27;85980;-56
2023/03/08 05:52:16;;;;;;;65.78;49.15;;;13.90;55.70;;;;;;5000802;27;88005;-57
2023/03/08 05:54:42;;;;;;;66.75;49.45;;;13.80;55.90;;;;;;4997928;27;91903;-56
2023/03/08 05:57:07;;;;;;;66.05;49.20;;;13.80;56.20;;;;;;5002647;27;86038;-50
2023/03/08 05:59:33;;;;;;;65.50;49.00;;;13.70;56.40;;;;;;5007114;27;86864;-57
2023/03/08 06:01:59;;;;;;;66.82;49.60;;;13.80;56.20;;;;;;5021104;27;87097;-57
2023/03/08 06:04:24;;;;;;;66.93;49.28;;;13.80;56.10;;;;;;5005951;28;86508;-57
2023/03/08 06:06:50;;;;;;;65.38;48.90;;;13.70;56.60;;;;;;5003810;27;91383;-58
2023/03/08 06:09:16;;;;;;;66.68;49.20;;;13.70;56.70;;;;;;4998234;27;87390;-58
2023/03/08 06:11:41;;;;;;;69.03;49.92;;;13.60;57.00;;;;;;5007901;27;86541;-58
2023/03/08 06:14:07;;;;;;;66.85;49.25;;;13.70;56.90;;;;;;5003401;27;86632;-57
2023/03/08 06:16:32;;;;;;;66.22;49.22;;;13.70;56.80;;;;;;5021056;27;85763;-56
2023/03/08 06:19:00;;;;;;;68.18;49.13;;;13.60;57.60;;;;;;5001556;27;86393;-57
2023/03/08 06:21:26;;;;;;;65.47;49.00;;;13.60;57.20;;;;;;4988047;27;86810;-58
2023/03/08 06:23:52;;;;;;;66.22;49.35;;;13.60;57.20;;;;;;4995742;27;86660;-52
2023/03/08 06:26:18;;;;;;;68.43;48.97;;;13.60;57.20;;;;;;4992200;27;91876;-58
2023/03/08 06:28:44;;;;;;;65.57;48.70;;;13.60;57.30;;;;;;5003082;28;87252;-57
2023/03/08 06:31:13;;;;;;;71.93;49.22;;;13.70;57.40;;;;;;5000783;27;87641;-53
2023/03/08 06:33:39;;;;;;;68.32;49.10;;;13.70;57.40;;;;;;5011065;27;86984;-57
2023/03/08 06:36:12;;;;;;;67.40;48.42;;;13.70;57.30;;;;;;5014123;27;85286;-56
2023/03/08 06:38:39;;;;;;;68.32;48.97;;;13.70;57.40;;;;;;5003876;27;87119;-58
2023/03/08 06:41:06;;;;;;;65.82;48.67;;;13.90;56.90;;;;;;5000174;27;85789;-52
2023/03/08 06:43:33;;;;;;;65.13;48.45;;;13.90;56.80;;;;;;5003216;27;88883;-58
2023/03/08 06:46:06;;;;;;;65.68;48.85;;;13.80;56.80;;;;;;4999217;27;90302;-58
2023/03/08 06:48:32;;;;;;;67.53;48.63;;;13.80;57.20;;;;;;5001915;27;86785;-58
2023/03/08 06:50:58;;;;;;;66.88;48.58;;;13.80;56.90;;;;;;4996813;27;86907;-57
2023/03/08 06:53:24;;;;;;;66.72;49.05;;;13.90;56.70;;;;;;5011817;27;87009;-57
2023/03/08 06:55:49;;;;;;;65.80;49.10;;;13.90;56.50;;;;;;5007533;27;85596;-54
2023/03/08 06:58:15;;;;;;;67.63;49.10;;;13.90;56.60;;;;;;5002791;27;88172;-58
2023/03/08 07:00:41;;;;;;;65.20;48.80;;;14.00;56.20;;;;;;5003655;27;86506;-58
2023/03/08 07:03:06;;;;;;;65.88;48.75;;;14.00;56.00;;;;;;5008615;27;87217;-58
2023/03/08 07:05:32;;;;;;;70.60;49.17;;;13.90;56.00;;;;;;5006125;27;86273;-58
2023/03/08 07:07:58;;;;;;;70.05;49.38;;;13.90;56.00;;;;;;5004250;27;85436;-54
2023/03/08 07:10:23;;;;;;;68.88;48.55;;;13.90;56.30;;;;;;5009506;27;87627;-57
2023/03/08 07:12:50;;;;;;;66.72;48.95;;;14.00;56.00;;;;;;5001502;27;86330;-57
2023/03/08 07:15:18;;;;;;;65.95;48.58;;;13.90;56.00;;;;;;5006722;27;87351;-57
2023/03/08 07:17:45;;;;;;;67.00;48.60;;;13.90;56.00;;;;;;5014390;27;89583;-57
2023/03/08 07:20:13;;;;;;;67.03;48.50;;;13.90;56.00;;;;;;5004545;27;89254;-58
2023/03/08 07:22:40;;;;;;;68.43;48.72;;;13.90;55.90;;;;;;5010978;28;87145;-57
2023/03/08 07:25:07;;;;;;;68.03;48.75;;;13.90;55.80;;;;;;5004885;27;86754;-56
2023/03/08 07:27:33;;;;;;;67.53;48.35;;;13.90;56.00;;;;;;5007807;27;86329;-58
2023/03/08 07:29:59;;;;;;;67.00;48.63;;;13.90;55.90;;;;;;5010400;27;85394;-57
2023/03/08 07:32:27;;;;;;;67.20;49.00;;;13.90;56.00;;;;;;5003912;27;85640;-57
2023/03/08 07:34:57;;;;;;;67.93;49.05;;;13.80;56.20;;;;;;4998626;28;87190;-52
2023/03/08 07:37:23;;;;;;;66.57;49.03;;;14.10;56.50;;;;;;5011998;27;87630;-51
2023/03/08 07:39:48;;;;;;;65.25;48.67;;;14.30;55.80;;;;;;4982461;27;88394;-55
2023/03/08 07:42:14;;;;;;;71.50;49.13;;;14.50;56.30;;;;;;4971602;27;88298;-58
2023/03/08 07:44:40;;;;;;;71.80;48.83;;;14.50;56.50;;;;;;4968889;27;86023;-57
2023/03/08 07:47:06;;;;;;;67.97;48.95;;;14.50;56.40;;;;;;4983580;28;85752;-59
2023/03/08 07:49:32;;;;;;;72.03;48.90;;;14.50;55.60;;;;;;4979116;27;89155;-56
2023/03/08 07:51:58;;;;;;;67.93;48.78;;;14.70;54.90;;;;;;4974095;27;89278;-59
2023/03/08 07:54:24;;;;;;;68.97;48.83;;;14.70;54.70;;;;;;4980611;27;87360;-58
2023/03/08 07:56:54;;;;;;;67.18;49.00;;;14.60;54.70;;;;;;4981091;27;86166;-54
2023/03/08 07:59:21;;;;;;;69.30;49.17;;;14.70;54.60;;;;;;4980718;27;85532;-51
2023/03/08 08:01:47;;;;;;;70.68;48.70;;;14.80;55.00;;;;;;4980062;27;87147;-63
2023/03/08 08:04:13;;;;;;;68.28;48.92;;;14.80;55.50;;;;;;4971537;27;88611;-47
2023/03/08 08:06:39;;;;;;;72.63;48.95;;;14.80;55.60;;;;;;4989557;27;86260;-54
2023/03/08 08:09:06;;;;;;;68.07;48.90;;;14.80;55.80;;;;;;4970650;27;87128;-52
2023/03/08 08:11:33;;;;;;;70.15;48.83;;;14.90;55.80;;;;;;4975645;27;86651;-52
2023/03/08 08:13:59;;;;;;;66.43;48.63;;;14.90;55.70;;;;;;4986635;27;85675;-54
2023/03/08 08:16:25;;;;;;;68.60;48.72;;;14.70;55.40;;;;;;4974473;27;87806;-53
2023/03/08 08:18:52;;;;;;;69.85;48.38;;;14.60;55.50;;;;;;4971940;27;86782;-55
2023/03/08 08:21:18;;;;;;;67.10;48.65;;;14.50;55.40;;;;;;4980075;27;86859;-54
2023/03/08 08:23:44;;;;;;;66.68;48.45;;;14.50;55.40;;;;;;4979358;27;86341;-50
2023/03/08 08:26:19;;;;;;;69.22;48.60;;;14.40;55.40;;;;;;4983013;27;85529;-55
2023/03/08 08:28:48;;;;;;;66.95;48.55;;;14.40;55.30;;;;;;4980525;27;86307;-46
2023/03/08 08:31:17;;;;;;;68.97;48.60;;;14.40;55.70;;;;;;4977062;27;86280;-55
2023/03/08 08:33:42;;;;;;;66.10;48.55;;;14.40;55.00;;;;;;4975294;27;91229;-47
2023/03/08 08:36:12;;;;;;;68.05;48.85;;;14.40;54.90;;;;;;4972313;27;87408;-53
2023/03/08 08:38:37;;;;;;;68.18;48.55;;;14.30;54.80;;;;;;4974266;27;86318;-46
2023/03/08 08:41:06;;;;;;;67.40;48.30;;;14.30;54.80;;;;;;4976324;27;88707;-52
2023/03/08 08:43:33;;;;;;;65.57;48.35;;;14.30;54.70;;;;;;4971834;27;86584;-53
2023/03/08 08:45:59;;;;;;;65.00;48.00;;;14.40;54.70;;;;;;4974586;27;85774;-54
2023/03/08 08:48:26;;;;;;;65.72;48.65;;;14.50;54.40;;;;;;4974751;27;86537;-54
2023/03/08 08:50:52;;;;;;;67.10;48.67;;;14.60;54.00;;;;;;4977038;28;87606;-54
2023/03/08 08:53:18;;;;;;;65.05;47.97;;;14.60;53.90;;;;;;4971350;27;89828;-47
2023/03/08 08:55:44;;;;;;;66.50;48.22;;;14.80;53.50;;;;;;4973183;27;86597;-53
2023/03/08 08:58:09;;;;;;;65.68;47.92;;;14.80;53.60;;;;;;4970414;27;91060;-54
2023/03/08 09:00:36;;;;;;;66.00;48.35;;;14.80;53.60;;;;;;4971713;27;89808;-49
2023/03/08 09:03:03;;;;;;;65.82;48.30;;;14.80;53.50;;;;;;4984478;27;86907;-46
2023/03/08 09:05:30;;;;;;;66.07;48.13;;;14.70;53.40;;;;;;4966932;27;86912;-51
2023/03/08 09:07:58;;;;;;;66.82;48.40;;;14.80;53.60;;;;;;4977438;27;90965;-48
2023/03/08 09:10:26;;;;;;;65.88;48.10;;;14.80;53.40;;;;;;4976447;27;90526;-54
2023/03/08 09:12:52;;;;;;;65.40;48.25;;;14.80;53.20;;;;;;4971513;27;85628;-52
2023/03/08 09:15:17;;;;;;;66.95;48.35;;;14.80;53.30;;;;;;4969024;27;86570;-54
2023/03/08 09:17:43;;;;;;;65.13;47.95;;;14.90;53.10;;;;;;4972328;27;87091;-55
2023/03/08 09:20:10;;;;;;;67.35;48.22;;;15.00;53.00;;;;;;4961428;28;87959;-56
2023/03/08 09:22:36;;;;;;;66.35;48.17;;;14.90;52.90;;;;;;4962782;27;87507;-55
2023/03/08 09:25:03;;;;;;;65.93;48.13;;;14.90;52.90;;;;;;4975186;27;86618;-56
2023/03/08 09:27:29;;;;;;;66.00;48.63;;;15.00;52.80;;;;;;4978420;27;91164;-55
2023/03/08 09:29:54;;;;;;;66.32;48.42;;;14.90;52.80;;;;;;4964646;27;86393;-54
2023/03/08 09:32:20;;;;;;;66.45;47.95;;;14.80;53.00;;;;;;4966520;27;87619;-46
2023/03/08 09:34:46;;;;;;;66.10;47.78;;;14.90;53.10;;;;;;4979803;27;87917;-52
2023/03/08 09:37:12;;;;;;;65.38;47.97;;;14.80;52.90;;;;;;4969155;27;86478;-53
2023/03/08 09:39:39;;;;;;;67.45;48.15;;;14.80;52.90;;;;;;4973112;27;91363;-52
2023/03/08 09:42:17;;;;;;;67.43;48.20;;;14.90;52.90;;;;;;4959290;27;86393;-52
2023/03/08 09:44:55;;;;;;;64.82;47.75;;;15.10;52.50;;;;;;4971645;27;86583;-52
2023/03/08 09:47:45;;;;;;;65.10;47.88;;;15.00;52.60;;;;;;4986552;27;85980;-52
2023/03/08 09:50:10;;;;;;;66.47;48.55;;;15.00;52.60;;;;;;4973115;27;88116;-56
2023/03/08 09:52:49;;;;;;;66.55;48.58;;;15.00;52.80;;;;;;4972092;27;86979;-56
2023/03/08 09:55:31;;;;;;;65.10;47.85;;;15.00;52.50;;;;;;4973832;27;88794;-50
2023/03/08 09:58:20;;;;;;;65.90;48.03;;;15.00;52.50;;;;;;4978198;27;89283;-54
2023/03/08 10:00:46;;;;;;;65.07;47.95;;;15.00;52.60;;;;;;4978948;27;87516;-50
2023/03/08 10:03:39;;;;;;;66.32;47.45;;;15.00;52.60;;;;;;4984695;27;87710;-51
2023/03/08 10:06:20;;;;;;;66.95;47.85;;;15.00;52.50;;;;;;4977271;27;85455;-47
2023/03/08 10:08:59;;;;;;;67.15;48.28;;;15.00;52.50;;;;;;4976944;27;86947;-50
2023/03/08 10:11:51;;;;;;;65.55;48.25;;;15.00;52.50;;;;;;4972210;27;86340;-54
2023/03/08 10:14:29;;;;;;;65.32;47.58;;;15.10;52.40;;;;;;4977568;27;87297;-58
2023/03/08 10:17:01;;;;;;;65.57;47.95;;;15.00;52.80;;;;;;4976627;27;86225;-60
2023/03/08 10:19:30;;;;;;;66.90;48.20;;;15.10;52.50;;;;;;4976359;27;87615;-53
2023/03/08 10:22:00;;;;;;;65.40;47.97;;;15.10;53.00;;;;;;4994958;27;87923;-49
2023/03/08 10:24:35;;;;;;;66.13;48.17;;;15.00;53.70;;;;;;4978478;27;89731;-48
2023/03/08 10:27:14;;;;;;;65.05;47.72;;;15.00;54.10;;;;;;4976640;27;89744;-52
2023/03/08 10:29:47;;;;;;;67.93;48.60;;;15.00;54.30;;;;;;4981909;27;86786;-59
2023/03/08 10:32:13;;;;;;;67.68;48.13;;;15.00;53.80;;;;;;4981150;27;88792;-54
2023/03/08 10:34:39;;;;;;;69.03;48.60;;;14.90;53.50;;;;;;4972713;27;88213;-56
2023/03/08 10:39:20;;;;;;;66.25;47.75;;;15.00;53.10;;;;;;4957658;28;83676;-50
2023/03/08 10:41:53;;;;;;;67.28;47.78;;;15.10;53.90;;;;;;4947110;28;86146;-47
2023/03/08 10:44:35;;;;;;;67.03;48.00;;;15.10;54.10;;;;;;4949031;28;86239;-48
2023/03/08 10:47:16;;;;;;;66.13;47.78;;;15.00;54.30;;;;;;4950892;28;87517;-51
2023/03/08 10:49:42;;;;;;;68.95;47.83;;;15.00;54.30;;;;;;4942219;28;86051;-47
2023/03/08 10:52:25;;;;;;;65.97;47.78;;;15.10;54.10;;;;;;4941505;28;86277;-49
2023/03/08 10:55:07;;;;;;;66.22;47.70;;;15.20;53.60;;;;;;4944788;28;87793;-53
2023/03/08 10:57:34;;;;;;;66.05;47.83;;;15.10;53.40;;;;;;4935541;28;91697;-52
2023/03/08 11:00:23;;;;;;;66.40;47.55;;;15.20;53.70;;;;;;4939480;28;86344;-52
2023/03/08 11:02:49;;;;;;;66.40;47.75;;;15.20;53.90;;;;;;4938684;28;89259;-48
2023/03/08 11:05:25;;;;;;;67.50;47.63;;;15.20;54.00;;;;;;4945167;28;87423;-50
2023/03/08 11:07:53;;;;;;;66.35;47.78;;;15.20;54.10;;;;;;4941794;28;87917;-58
2023/03/08 11:10:24;;;;;;;66.53;47.65;;;15.20;54.20;;;;;;4939062;28;90696;-50
2023/03/08 11:13:27;;;;;;;67.63;48.05;;;15.20;54.00;;;;;;4929118;28;87284;-53
2023/03/08 11:16:28;;;;;;;66.30;47.83;;;15.20;54.10;;;;;;4942725;28;88341;-57
2023/03/08 11:19:05;;;;;;;67.00;47.72;;;15.20;54.10;;;;;;4955073;28;85853;-48
2023/03/08 11:21:55;;;;;;;66.35;47.67;;;15.20;54.00;;;;;;4931178;28;88516;-55
2023/03/08 11:24:45;;;;;;;66.43;47.58;;;15.30;53.90;;;;;;4944187;28;86782;-50
2023/03/08 11:27:29;;;;;;;66.78;47.63;;;15.20;53.80;;;;;;4940017;28;86887;-53
2023/03/08 11:30:04;;;;;;;69.20;48.10;;;15.30;53.70;;;;;;4944956;28;89767;-46
2023/03/08 11:33:00;;;;;;;67.60;48.30;;;15.30;53.90;;;;;;4936195;28;87044;-52
2023/03/08 11:35:41;;;;;;;66.60;47.58;;;15.30;53.80;;;;;;4939471;28;89393;-58
2023/03/08 11:38:18;;;;;;;67.65;47.80;;;15.30;53.60;;;;;;4946090;28;87340;-55
2023/03/08 11:41:05;;;;;;;67.43;47.85;;;15.30;53.70;;;;;;4945853;28;86402;-49
2023/03/08 11:43:50;;;;;;;67.22;48.15;;;15.30;53.70;;;;;;4942688;28;86243;-53
2023/03/08 11:46:15;;;;;;;66.80;48.13;;;15.30;53.80;;;;;;4943409;28;87318;-56
2023/03/08 11:48:53;;;;;;;67.53;47.95;;;15.30;53.40;;;;;;4937064;28;88368;-53
2023/03/08 11:51:34;;;;;;;70.32;47.92;;;15.30;53.60;;;;;;4941790;28;85897;-57
2023/03/08 11:54:11;;;;;;;;;;;15.30;53.90;;;;;;4925985;28;88636;-58
2023/03/08 11:57:00;;;;;;;66.28;47.55;;;15.30;53.90;;;;;;4927262;28;82921;-57
2023/03/08 11:59:33;;;;;;;67.00;48.25;;;15.40;53.80;;;;;;4930985;28;86322;-52
2023/03/08 12:02:02;;;;;;;66.85;48.00;;;15.40;53.60;;;;;;4936801;28;86646;-51
2023/03/08 12:05:01;;;;;;;67.10;47.90;;;15.40;53.10;;;;;;4981903;27;83682;-48
2023/03/08 12:07:34;;;;;;;66.82;47.92;;;15.40;53.30;;;;;;4956979;28;86985;-50
2023/03/08 12:10:14;;;;;;;68.35;48.05;;;15.30;53.60;;;;;;4943817;28;86861;-55
2023/03/08 12:12:46;;;;;;;67.13;48.00;;;15.30;53.80;;;;;;4952974;28;88410;-58
2023/03/08 12:15:24;;;;;;;69.25;48.08;;;15.30;53.80;;;;;;4973089;28;85695;-61
2023/03/08 12:18:06;;;;;;;67.22;47.88;;;15.30;53.70;;;;;;4985835;28;90753;-51
2023/03/08 12:22:32;;;;;;;67.85;48.25;;;15.40;52.90;;;;;;5032601;27;83382;-56
2023/03/08 12:25:10;;;;;;;68.97;48.35;;;15.50;53.40;;;;;;5018860;27;85968;-58
2023/03/08 12:30:27;;;;;;;74.45;48.30;;;15.40;52.90;;;;;;5063008;27;82625;-53
2023/03/08 12:32:55;;;;;;;67.45;47.67;;;15.40;53.50;;;;;;5039135;27;96347;-53
2023/03/08 12:35:36;;;;;;;69.70;48.00;;;15.40;53.30;;;;;;5046740;27;91034;-58
2023/03/08 12:38:13;;;;;;;70.88;48.28;;;15.50;53.30;;;;;;5028088;27;89341;-49
2023/03/08 12:40:44;;;;;;;72.00;48.35;;;15.60;53.20;;;;;;5032576;27;87823;-56
2023/03/08 12:43:27;;;;;;;69.97;47.85;;;15.60;53.10;;;;;;5040856;27;87006;-48
2023/03/08 12:45:58;;;;;;;68.90;48.13;;;15.70;53.20;;;;;;5014516;27;92291;-62